Terminal Aerodrome Forecast
Issued by NWS

Home | Current Version | Previous Version | Text Only | Print | Product List | Glossary On
Versions: 1 2 3 4 5 6 7 8 9 10 11 12 13 14 15 16 17 18 19 20 21
000
FTUS46 KLOX 210214 AAA
TAFPRB
TAF AMD
KPRB 210214Z 2102/2124 18015G25KT P6SM -SHRA BKN025 OVC040
     FM210500 17015G21KT 5SM -RA BR BKN025 OVC040
      TEMPO 2110/2112 3SM RA BR OVC012
     FM211300 17011KT 3SM -SHRA BR BKN012 OVC025
     FM211800 20012KT P6SM SCT025 BKN040
     FM212200 29012KT P6SM SCT050=

USA.gov is the U.S. government's official web portal to all federal, state and local government web resources and services.